Time;durP1;ratioP1;P1;durP2;ratioP2;P2;SDS_P1;SDS_P2;PMS_P1;PMS_P2;Temp;Humidity;BMP_temperature;BMP_pressure;BME280_temperature;BME280_humidity;BME280_pressure;Samples;Min_cycle;Max_cycle;Signal;HPM_P1;HPM_P2
2022/07/15 00:02:22;;;;;;;7.18;1.88;;;14.80;99.90;;;;;;5107886;28;20062;-67
2022/07/15 00:04:48;;;;;;;8.20;2.22;;;14.80;99.90;;;;;;5091707;28;20043;-67
2022/07/15 00:07:13;;;;;;;5.10;1.80;;;14.80;99.90;;;;;;5091045;28;20036;-67
2022/07/15 00:12:24;;;;;;;7.82;1.90;;;14.70;99.90;;;;;;5090770;28;20492;-67
2022/07/15 00:14:49;;;;;;;5.50;1.83;;;14.70;99.90;;;;;;5091119;28;20126;-67
2022/07/15 00:17:15;;;;;;;7.00;1.73;;;14.80;99.90;;;;;;5090935;28;20479;-67
2022/07/15 00:19:41;;;;;;;6.30;2.00;;;14.80;99.90;;;;;;5089401;28;20126;-67
2022/07/15 00:22:07;;;;;;;7.25;2.05;;;14.70;99.90;;;;;;5090674;28;20059;-67
2022/07/15 00:24:32;;;;;;;5.38;1.52;;;14.70;99.90;;;;;;5090550;28;20052;-67
2022/07/15 00:26:58;;;;;;;9.55;2.15;;;14.70;99.90;;;;;;5089535;28;20050;-67
2022/07/15 00:29:27;;;;;;;8.50;2.08;;;14.70;99.90;;;;;;5091034;28;20040;-67
2022/07/15 00:31:53;;;;;;;6.60;1.92;;;14.60;99.90;;;;;;5090722;28;20054;-67
2022/07/15 00:34:19;;;;;;;8.45;1.85;;;14.70;99.90;;;;;;5090636;28;20047;-68
2022/07/15 00:36:44;;;;;;;6.32;2.05;;;14.70;99.90;;;;;;5090650;28;20044;-68
2022/07/15 00:39:10;;;;;;;10.70;2.10;;;14.60;99.90;;;;;;5090629;28;20040;-68
2022/07/15 00:41:37;;;;;;;4.20;1.77;;;14.60;99.90;;;;;;5090897;28;20040;-68
2022/07/15 00:44:03;;;;;;;5.80;2.15;;;14.60;99.90;;;;;;5089364;28;20360;-68
2022/07/15 00:46:30;;;;;;;7.75;1.80;;;14.60;99.90;;;;;;5090791;28;20047;-68
2022/07/15 00:48:57;;;;;;;4.90;2.00;;;14.60;99.90;;;;;;5090282;28;20412;-68
2022/07/15 00:51:23;;;;;;;6.35;1.98;;;14.60;99.90;;;;;;5090430;28;20064;-68
2022/07/15 00:53:49;;;;;;;11.70;2.63;;;14.60;99.90;;;;;;5088973;28;20638;-68
2022/07/15 00:56:17;;;;;;;6.55;1.77;;;14.60;99.90;;;;;;5090642;28;20044;-68
2022/07/15 00:58:43;;;;;;;5.28;1.77;;;14.70;99.90;;;;;;5090436;28;20060;-68
2022/07/15 01:01:10;;;;;;;5.45;2.25;;;14.70;99.90;;;;;;5089091;28;20044;-68
2022/07/15 01:03:36;;;;;;;6.97;1.80;;;14.70;99.90;;;;;;5090418;28;20040;-68
2022/07/15 01:06:03;;;;;;;12.57;2.20;;;14.70;99.90;;;;;;5101793;28;20107;-68
2022/07/15 01:08:29;;;;;;;8.43;1.77;;;14.70;99.90;;;;;;5115816;28;20087;-67
2022/07/15 01:10:54;;;;;;;8.38;1.60;;;14.70;99.90;;;;;;5096059;28;20072;-68
2022/07/15 01:13:21;;;;;;;7.00;1.77;;;14.70;99.90;;;;;;5093310;28;20043;-68
2022/07/15 01:15:48;;;;;;;9.73;2.05;;;14.70;99.90;;;;;;5094388;28;20044;-68
2022/07/15 01:18:14;;;;;;;8.43;2.00;;;14.70;99.90;;;;;;5093958;28;20036;-68
2022/07/15 01:20:41;;;;;;;8.20;2.00;;;14.70;99.90;;;;;;5094220;28;20050;-68
2022/07/15 01:23:07;;;;;;;6.43;2.00;;;14.80;99.90;;;;;;5094043;28;20439;-68
2022/07/15 01:25:32;;;;;;;7.65;2.50;;;14.70;99.90;;;;;;5094129;28;20050;-68
2022/07/15 01:27:58;;;;;;;9.18;1.95;;;14.80;99.90;;;;;;5094501;28;20055;-68
2022/07/15 01:30:24;;;;;;;5.63;1.85;;;14.80;99.90;;;;;;5094273;28;20032;-68
2022/07/15 01:32:50;;;;;;;6.28;1.85;;;14.80;99.90;;;;;;5093521;28;20039;-68
2022/07/15 01:35:15;;;;;;;4.32;1.75;;;14.90;99.90;;;;;;5094109;28;20040;-68
2022/07/15 01:37:41;;;;;;;3.75;2.00;;;14.80;99.90;;;;;;5092518;28;20411;-68
2022/07/15 01:40:07;;;;;;;9.18;1.77;;;14.80;99.90;;;;;;5092429;28;20093;-68
2022/07/15 01:42:33;;;;;;;9.52;1.98;;;14.90;99.90;;;;;;5093863;28;20142;-68
2022/07/15 01:44:58;;;;;;;7.60;2.08;;;14.80;99.90;;;;;;5092474;28;20075;-68
2022/07/15 01:47:24;;;;;;;6.90;2.10;;;14.90;99.90;;;;;;5093906;28;20434;-67
2022/07/15 01:49:50;;;;;;;4.97;1.80;;;14.90;99.90;;;;;;5093817;28;20403;-67
2022/07/15 01:52:15;;;;;;;6.00;2.33;;;14.80;99.90;;;;;;5092271;28;20558;-67
2022/07/15 01:54:41;;;;;;;5.63;2.30;;;14.90;99.90;;;;;;5093489;28;20439;-67
2022/07/15 01:57:07;;;;;;;8.88;2.15;;;14.90;99.90;;;;;;5093499;28;20044;-67
2022/07/15 01:59:32;;;;;;;13.23;2.30;;;14.90;99.90;;;;;;5092102;28;20044;-67
2022/07/15 02:01:58;;;;;;;6.65;2.30;;;14.90;99.90;;;;;;5093827;28;20558;-67
2022/07/15 02:04:25;;;;;;;11.13;2.35;;;14.80;99.90;;;;;;5093509;28;20459;-68
2022/07/15 02:06:50;;;;;;;9.48;2.22;;;14.90;99.90;;;;;;5092244;28;20055;-68
2022/07/15 02:09:16;;;;;;;3.95;1.42;;;15.00;99.90;;;;;;5091986;28;20044;-68
2022/07/15 02:11:43;;;;;;;7.07;1.83;;;15.00;99.90;;;;;;5093261;28;20051;-68
2022/07/15 02:14:09;;;;;;;7.05;1.70;;;15.00;99.90;;;;;;5091789;28;20496;-68
2022/07/15 02:16:35;;;;;;;11.27;2.35;;;15.00;99.90;;;;;;5108529;28;20028;-68
2022/07/15 02:19:01;;;;;;;7.32;1.92;;;14.90;99.90;;;;;;5116362;28;20046;-68
2022/07/15 02:21:27;;;;;;;7.88;2.25;;;15.00;99.90;;;;;;5092617;28;20044;-69
2022/07/15 02:23:54;;;;;;;7.32;2.00;;;15.00;99.90;;;;;;5091722;28;20542;-68
2022/07/15 02:26:20;;;;;;;8.00;1.88;;;15.00;99.90;;;;;;5092111;28;20055;-69
2022/07/15 02:28:46;;;;;;;16.23;2.20;;;15.00;99.90;;;;;;5091509;28;20055;-68
2022/07/15 02:31:12;;;;;;;13.35;2.35;;;15.00;99.90;;;;;;5092751;28;20487;-69
2022/07/15 02:33:39;;;;;;;8.13;1.70;;;15.00;99.90;;;;;;5091127;28;20036;-68
2022/07/15 02:36:05;;;;;;;9.25;1.80;;;15.00;99.90;;;;;;5091537;28;20455;-68
2022/07/15 02:38:30;;;;;;;9.80;1.65;;;15.00;99.90;;;;;;5092684;28;20743;-68
2022/07/15 02:40:56;;;;;;;7.25;1.92;;;14.90;99.90;;;;;;5092647;28;20091;-68
2022/07/15 02:43:22;;;;;;;9.55;1.80;;;14.80;99.90;;;;;;5092460;28;20036;-68
2022/07/15 02:45:47;;;;;;;10.77;2.33;;;14.80;99.90;;;;;;5091411;28;20062;-68
2022/07/15 02:48:13;;;;;;;7.68;2.38;;;14.80;99.90;;;;;;5090992;28;20066;-68
2022/07/15 02:50:38;;;;;;;7.10;1.80;;;14.80;99.90;;;;;;5092520;28;20036;-68
2022/07/15 02:53:04;;;;;;;8.32;1.77;;;14.80;99.90;;;;;;5090794;28;20555;-68
2022/07/15 02:55:30;;;;;;;8.32;2.00;;;14.80;99.90;;;;;;5091047;28;20040;-68
2022/07/15 02:57:56;;;;;;;10.05;1.98;;;14.80;99.90;;;;;;5092489;28;20078;-68
2022/07/15 03:00:21;;;;;;;11.60;2.35;;;14.70;99.90;;;;;;5092417;28;20035;-68
2022/07/15 03:02:48;;;;;;;11.70;2.40;;;14.70;99.90;;;;;;5092133;28;20357;-68
2022/07/15 03:05:14;;;;;;;7.57;2.10;;;14.70;99.90;;;;;;5092192;28;20093;-68
2022/07/15 03:07:41;;;;;;;7.85;1.95;;;14.70;99.90;;;;;;5091176;28;20044;-68
2022/07/15 03:10:09;;;;;;;6.20;1.80;;;14.70;99.90;;;;;;5074195;28;20072;-68
2022/07/15 03:12:35;;;;;;;6.45;1.60;;;14.70;99.90;;;;;;5092113;28;20032;-67
2022/07/15 03:15:01;;;;;;;7.75;2.00;;;14.70;99.90;;;;;;5092071;28;20032;-67
2022/07/15 03:17:27;;;;;;;8.43;2.08;;;14.70;99.90;;;;;;5090472;28;20051;-68
2022/07/15 03:19:55;;;;;;;8.13;2.00;;;14.60;99.90;;;;;;5091797;28;20040;-68
2022/07/15 03:22:24;;;;;;;5.18;1.75;;;14.60;99.90;;;;;;5091399;28;20089;-68
2022/07/15 03:24:50;;;;;;;7.47;1.75;;;14.50;99.90;;;;;;5088137;28;20040;-68
2022/07/15 03:27:16;;;;;;;6.78;1.67;;;14.50;99.90;;;;;;5106437;28;20051;-68
2022/07/15 03:29:42;;;;;;;6.55;1.92;;;14.50;99.90;;;;;;5109422;28;20052;-68
2022/07/15 03:32:10;;;;;;;7.68;2.03;;;14.50;99.90;;;;;;5091778;28;20149;-67
2022/07/15 03:34:36;;;;;;;10.15;2.20;;;14.40;99.90;;;;;;5090840;28;20043;-68
2022/07/15 03:37:01;;;;;;;7.95;1.98;;;14.40;99.90;;;;;;5091437;28;20040;-68
2022/07/15 03:39:27;;;;;;;8.48;2.22;;;14.40;99.90;;;;;;5090966;28;20482;-68
2022/07/15 03:41:53;;;;;;;9.93;2.38;;;14.30;99.90;;;;;;5090647;28;20093;-67
2022/07/15 03:44:19;;;;;;;8.90;2.22;;;14.30;99.90;;;;;;5091977;28;20429;-67
2022/07/15 03:46:47;;;;;;;6.13;1.65;;;14.30;99.90;;;;;;5092052;28;20119;-68
2022/07/15 03:49:14;;;;;;;6.43;2.10;;;14.30;99.90;;;;;;5089905;28;20055;-68
2022/07/15 03:51:40;;;;;;;9.95;2.20;;;14.20;99.90;;;;;;5090351;28;20052;-68
2022/07/15 03:54:06;;;;;;;6.93;1.80;;;14.20;99.90;;;;;;5089878;28;20098;-68
2022/07/15 03:56:32;;;;;;;13.57;2.65;;;14.20;99.90;;;;;;5091497;28;20055;-68
2022/07/15 03:58:58;;;;;;;8.40;2.10;;;14.20;99.90;;;;;;5091400;28;20085;-68
2022/07/15 04:01:24;;;;;;;8.70;2.13;;;14.20;99.90;;;;;;5091177;28;20059;-68
2022/07/15 04:03:51;;;;;;;5.78;2.17;;;14.30;99.90;;;;;;5090980;28;20043;-68
2022/07/15 04:06:18;;;;;;;4.53;2.20;;;14.30;99.90;;;;;;5089942;28;20096;-68
2022/07/15 04:08:44;;;;;;;13.18;2.47;;;14.40;99.90;;;;;;5091419;28;20043;-68
2022/07/15 04:11:11;;;;;;;8.57;2.30;;;14.40;99.90;;;;;;5090234;28;20173;-68
2022/07/15 04:13:38;;;;;;;11.63;2.35;;;14.50;99.90;;;;;;5090190;28;20097;-68
2022/07/15 04:16:05;;;;;;;4.97;1.77;;;14.50;99.90;;;;;;5091267;28;20040;-67
2022/07/15 04:18:31;;;;;;;10.13;2.42;;;14.60;99.90;;;;;;5089961;28;20101;-67
2022/07/15 04:20:56;;;;;;;19.63;2.40;;;14.70;99.90;;;;;;5091379;28;20388;-67
2022/07/15 04:23:22;;;;;;;7.78;2.25;;;14.70;99.90;;;;;;5089488;28;20123;-67
2022/07/15 04:25:51;;;;;;;6.95;2.17;;;14.80;99.90;;;;;;5073022;28;20036;-67
2022/07/15 04:28:18;;;;;;;7.70;2.13;;;14.80;99.90;;;;;;5073255;28;20040;-67
2022/07/15 04:30:43;;;;;;;8.07;2.00;;;14.80;99.90;;;;;;5090928;28;20412;-67
2022/07/15 04:33:09;;;;;;;11.27;2.45;;;14.90;99.90;;;;;;5088954;28;20072;-67
2022/07/15 04:35:34;;;;;;;7.38;2.28;;;14.90;99.90;;;;;;5091215;28;20055;-67
2022/07/15 04:38:00;;;;;;;7.95;2.28;;;15.00;99.90;;;;;;5114605;28;20085;-67
2022/07/15 04:40:26;;;;;;;8.32;1.95;;;15.00;99.90;;;;;;5105260;28;20052;-67
2022/07/15 04:42:51;;;;;;;6.68;1.98;;;15.00;99.90;;;;;;5090985;28;20040;-67
2022/07/15 04:45:17;;;;;;;9.32;2.10;;;15.10;99.90;;;;;;5095356;28;20043;-67
2022/07/15 04:47:42;;;;;;;9.05;2.00;;;15.10;99.90;;;;;;5096044;28;20462;-67
2022/07/15 04:52:53;;;;;;;11.32;2.30;;;15.20;99.90;;;;;;5097306;28;20044;-67
2022/07/15 04:55:19;;;;;;;8.50;2.15;;;15.30;99.90;;;;;;5097496;28;20040;-67
2022/07/15 04:57:44;;;;;;;6.20;1.90;;;15.40;99.90;;;;;;5096510;28;20131;-67
2022/07/15 05:00:10;;;;;;;5.90;1.67;;;15.50;99.90;;;;;;5097571;28;20047;-67
2022/07/15 05:02:36;;;;;;;7.15;1.75;;;15.70;99.90;;;;;;5096778;28;20043;-69
2022/07/15 05:05:02;;;;;;;5.95;1.80;;;15.80;99.90;;;;;;5095639;28;20054;-69
2022/07/15 05:07:28;;;;;;;8.68;1.83;;;15.70;99.90;;;;;;5097276;28;20032;-69
2022/07/15 05:09:53;;;;;;;6.03;1.50;;;15.90;99.90;;;;;;5095670;28;20039;-69
2022/07/15 05:12:19;;;;;;;4.68;1.30;;;15.90;99.90;;;;;;5095673;28;20356;-69
2022/07/15 05:14:45;;;;;;;6.78;1.50;;;15.80;99.90;;;;;;5097187;28;20039;-69
2022/07/15 05:17:10;;;;;;;6.95;1.58;;;15.80;99.90;;;;;;5095938;28;20052;-69
2022/07/15 05:19:36;;;;;;;7.00;2.13;;;15.60;99.90;;;;;;5096925;28;20047;-69
2022/07/15 05:22:02;;;;;;;7.80;2.05;;;15.60;99.90;;;;;;5096802;28;20071;-69
2022/07/15 05:24:27;;;;;;;3.65;1.60;;;15.60;99.90;;;;;;5096687;28;20032;-69
2022/07/15 05:26:53;;;;;;;7.15;1.65;;;15.70;99.90;;;;;;5096753;28;20415;-69
2022/07/15 05:29:21;;;;;;;7.65;1.50;;;15.70;99.90;;;;;;5097026;28;20040;-69
2022/07/15 05:31:48;;;;;;;4.15;1.50;;;15.70;99.90;;;;;;5097154;28;20048;-69
2022/07/15 05:34:14;;;;;;;10.25;1.90;;;15.70;99.90;;;;;;5096269;28;20036;-69
2022/07/15 05:36:40;;;;;;;5.68;1.50;;;15.70;99.90;;;;;;5095777;28;20639;-69
2022/07/15 05:39:06;;;;;;;8.02;1.80;;;15.60;99.90;;;;;;5095520;28;20040;-67
2022/07/15 05:41:32;;;;;;;5.60;1.77;;;15.60;99.90;;;;;;5096970;28;20471;-67
2022/07/15 05:43:58;;;;;;;10.70;1.83;;;15.70;99.90;;;;;;5095734;28;20036;-67
2022/07/15 05:46:24;;;;;;;7.18;1.88;;;15.60;99.90;;;;;;5103777;28;20133;-69
2022/07/15 05:48:50;;;;;;;6.55;1.50;;;15.60;99.90;;;;;;5121564;28;20047;-68
2022/07/15 05:51:15;;;;;;;5.85;1.33;;;15.60;99.90;;;;;;5103547;28;20044;-68
2022/07/15 05:53:41;;;;;;;5.90;1.80;;;15.60;99.90;;;;;;5096998;28;20506;-68
2022/07/15 05:56:07;;;;;;;4.80;1.40;;;15.60;99.90;;;;;;5094070;28;20039;-69
2022/07/15 05:58:33;;;;;;;8.43;1.50;;;15.60;99.90;;;;;;5093710;28;20488;-68
2022/07/15 06:00:58;;;;;;;3.03;1.40;;;15.50;99.90;;;;;;5093473;28;20519;-68
2022/07/15 06:03:24;;;;;;;9.32;1.50;;;15.50;99.90;;;;;;5074991;28;20036;-68
2022/07/15 06:05:49;;;;;;;5.82;2.10;;;15.50;99.90;;;;;;5093280;28;20044;-68
2022/07/15 06:08:15;;;;;;;6.55;1.77;;;15.50;99.90;;;;;;5091910;28;20051;-68
2022/07/15 06:10:42;;;;;;;4.10;1.70;;;15.50;99.90;;;;;;5091842;28;20040;-68
2022/07/15 06:13:07;;;;;;;7.47;1.48;;;15.60;99.90;;;;;;5092776;28;20066;-68
2022/07/15 06:15:33;;;;;;;3.65;1.20;;;15.60;99.90;;;;;;5091630;28;20047;-67
2022/07/15 06:18:00;;;;;;;8.93;1.50;;;15.50;99.90;;;;;;5092710;28;20047;-67
2022/07/15 06:20:26;;;;;;;3.17;1.10;;;15.50;99.90;;;;;;5092543;28;20040;-67
2022/07/15 06:22:51;;;;;;;7.68;1.33;;;15.50;99.90;;;;;;5092688;28;20040;-67
2022/07/15 06:25:17;;;;;;;5.65;1.17;;;15.50;99.90;;;;;;5092820;28;20484;-67
2022/07/15 06:27:43;;;;;;;5.03;1.30;;;15.50;99.90;;;;;;5092656;28;20119;-67
2022/07/15 06:30:09;;;;;;;3.60;1.25;;;15.60;99.90;;;;;;5091507;28;20036;-67
2022/07/15 06:32:35;;;;;;;4.15;1.38;;;15.70;99.90;;;;;;5092352;28;20066;-67
2022/07/15 06:35:01;;;;;;;3.83;1.30;;;15.60;99.90;;;;;;5091198;28;20524;-67
2022/07/15 06:37:30;;;;;;;3.90;0.85;;;15.70;99.90;;;;;;5092621;28;20123;-67
2022/07/15 06:39:55;;;;;;;5.20;1.50;;;15.80;99.90;;;;;;5081651;28;20062;-67
2022/07/15 06:42:24;;;;;;;6.20;1.02;;;15.90;99.90;;;;;;5071760;28;20111;-67
2022/07/15 06:44:50;;;;;;;3.63;1.13;;;16.10;99.90;;;;;;5071193;28;20055;-67
2022/07/15 06:47:16;;;;;;;6.53;1.08;;;16.30;99.90;;;;;;5072236;28;20848;-67
2022/07/15 06:49:41;;;;;;;3.92;1.10;;;16.50;99.90;;;;;;5072130;28;20045;-67
2022/07/15 06:52:07;;;;;;;3.88;1.27;;;16.70;99.90;;;;;;5070864;28;20098;-67
2022/07/15 06:54:33;;;;;;;3.20;0.93;;;16.70;99.90;;;;;;5070923;28;20408;-67
2022/07/15 06:56:59;;;;;;;8.38;1.23;;;16.80;99.90;;;;;;5081581;28;20037;-67
2022/07/15 06:59:25;;;;;;;3.15;0.77;;;16.90;99.90;;;;;;5092142;28;20032;-67
2022/07/15 07:01:52;;;;;;;4.95;1.10;;;17.10;99.90;;;;;;5075727;28;20149;-67
2022/07/15 07:04:17;;;;;;;2.80;0.85;;;17.30;99.90;;;;;;5074833;28;20040;-71
2022/07/15 07:06:43;;;;;;;9.63;0.93;;;17.50;99.90;;;;;;5070766;28;20404;-67
2022/07/15 07:09:09;;;;;;;6.20;0.98;;;17.60;99.90;;;;;;5070220;28;20048;-67
2022/07/15 07:11:35;;;;;;;2.47;0.95;;;17.80;99.90;;;;;;5071989;28;20032;-67
2022/07/15 07:14:00;;;;;;;5.65;0.88;;;17.90;99.90;;;;;;5071497;28;20500;-68
2022/07/15 07:16:26;;;;;;;2.80;0.75;;;18.00;99.90;;;;;;5070541;28;20044;-68
2022/07/15 07:18:52;;;;;;;2.88;1.05;;;18.10;99.90;;;;;;5071298;28;20040;-66
2022/07/15 07:21:19;;;;;;;2.65;0.90;;;18.20;99.90;;;;;;5071630;28;20028;-70
2022/07/15 07:23:45;;;;;;;4.55;0.80;;;18.30;99.90;;;;;;5069639;28;20064;-71
2022/07/15 07:26:12;;;;;;;4.25;0.80;;;18.40;99.90;;;;;;5070552;28;20083;-71
2022/07/15 07:28:40;;;;;;;4.53;0.80;;;18.50;99.90;;;;;;5070152;28;20165;-68
2022/07/15 07:31:09;;;;;;;3.35;0.73;;;18.60;99.90;;;;;;5070632;28;20048;-68
2022/07/15 07:33:36;;;;;;;2.15;0.82;;;18.70;99.90;;;;;;5053845;28;20226;-68
2022/07/15 07:36:04;;;;;;;4.75;0.90;;;18.80;99.90;;;;;;5054101;28;20044;-68
2022/07/15 07:38:30;;;;;;;3.55;0.60;;;18.80;99.90;;;;;;5071703;28;20045;-68
2022/07/15 07:40:55;;;;;;;2.53;0.77;;;18.90;99.90;;;;;;5071969;28;20044;-68
2022/07/15 07:43:21;;;;;;;3.38;0.65;;;18.90;99.90;;;;;;5070136;28;20040;-68
2022/07/15 07:45:46;;;;;;;2.53;0.52;;;19.00;99.90;;;;;;5069680;28;20040;-68
2022/07/15 07:48:13;;;;;;;3.47;0.77;;;19.20;99.90;;;;;;5071164;28;20048;-68
2022/07/15 07:50:39;;;;;;;4.82;0.70;;;19.20;99.90;;;;;;5071254;28;20037;-68
2022/07/15 07:53:06;;;;;;;4.95;0.60;;;19.40;99.90;;;;;;5070996;28;20036;-67
2022/07/15 07:55:31;;;;;;;4.38;0.80;;;19.30;99.90;;;;;;5071198;28;20170;-68
2022/07/15 07:57:59;;;;;;;4.40;0.80;;;19.30;99.90;;;;;;5070739;28;20479;-68
2022/07/15 08:00:26;;;;;;;3.28;0.60;;;19.10;99.90;;;;;;5070861;28;20043;-68
2022/07/15 08:02:53;;;;;;;5.68;0.65;;;19.20;99.90;;;;;;5069077;28;20040;-68
2022/07/15 08:05:20;;;;;;;1.77;0.50;;;19.30;99.90;;;;;;5071390;28;20185;-68
2022/07/15 08:07:46;;;;;;;3.08;0.60;;;19.30;99.90;;;;;;5087454;28;20052;-68
2022/07/15 08:10:13;;;;;;;2.30;0.63;;;19.40;99.90;;;;;;5089566;28;20058;-68
2022/07/15 08:12:40;;;;;;;7.32;0.75;;;19.40;99.90;;;;;;5069256;28;20036;-68
2022/07/15 08:15:08;;;;;;;1.95;0.43;;;19.30;99.90;;;;;;5070731;28;20116;-68
2022/07/15 08:17:34;;;;;;;3.30;0.70;;;19.20;99.90;;;;;;5070755;28;20440;-68
2022/07/15 08:19:59;;;;;;;3.90;0.60;;;19.20;99.90;;;;;;5051950;28;20128;-68
2022/07/15 08:22:25;;;;;;;2.20;0.60;;;19.20;99.90;;;;;;5068898;28;20509;-68
2022/07/15 08:24:50;;;;;;;1.52;0.60;;;19.30;99.90;;;;;;5070575;28;20538;-68
2022/07/15 08:27:17;;;;;;;2.92;0.50;;;19.50;99.90;;;;;;5070344;28;20041;-68
2022/07/15 08:29:44;;;;;;;1.40;0.55;;;19.60;99.90;;;;;;5070262;28;20040;-68
2022/07/15 08:32:10;;;;;;;3.58;0.70;;;19.70;99.90;;;;;;5070774;28;20052;-68
2022/07/15 08:34:36;;;;;;;2.88;0.52;;;19.70;99.90;;;;;;5070648;28;20041;-68
2022/07/15 08:37:01;;;;;;;1.42;0.38;;;19.50;99.90;;;;;;5068826;28;20052;-68
2022/07/15 08:39:27;;;;;;;4.00;0.50;;;19.50;99.90;;;;;;5068857;28;20052;-68
2022/07/15 08:41:53;;;;;;;1.65;0.55;;;19.70;99.90;;;;;;5070322;28;20052;-68
2022/07/15 08:44:19;;;;;;;1.35;0.50;;;20.00;99.90;;;;;;5069890;28;20036;-67
2022/07/15 08:46:47;;;;;;;0.88;0.50;;;20.10;99.90;;;;;;5068846;28;20036;-68
2022/07/15 08:49:15;;;;;;;1.17;0.50;;;20.20;99.90;;;;;;5070210;28;20036;-69
2022/07/15 08:51:45;;;;;;;1.02;0.40;;;20.10;99.90;;;;;;5070366;28;20132;-67
2022/07/15 08:54:12;;;;;;;2.70;0.60;;;20.00;99.90;;;;;;5069935;28;20451;-68
2022/07/15 08:56:38;;;;;;;3.97;0.60;;;20.10;99.90;;;;;;5070324;28;20105;-68
2022/07/15 08:59:05;;;;;;;1.98;0.57;;;20.00;99.90;;;;;;5070295;28;20041;-68
2022/07/15 09:01:32;;;;;;;2.10;0.50;;;19.90;99.90;;;;;;5070282;28;20040;-68
2022/07/15 09:03:58;;;;;;;1.50;0.52;;;19.90;99.90;;;;;;5069997;28;20224;-68
2022/07/15 09:06:37;;;;;;;2.53;0.57;;;20.10;99.90;;;;;;5068962;28;20115;-68
2022/07/15 09:09:36;;;;;;;1.80;0.40;;;20.20;99.90;;;;;;5068524;28;20036;-69
2022/07/15 09:12:11;;;;;;;1.48;0.40;;;20.40;99.90;;;;;;5068965;28;20504;-68
2022/07/15 09:14:39;;;;;;;1.13;0.50;;;20.50;99.90;;;;;;5068863;28;20051;-68
2022/07/15 09:17:06;;;;;;;1.38;0.65;;;20.50;99.90;;;;;;5083985;28;20029;-68
2022/07/15 09:20:00;;;;;;;3.00;0.50;;;20.50;99.90;;;;;;5094097;28;20079;-68
2022/07/15 09:22:28;;;;;;;4.80;0.77;;;20.60;99.90;;;;;;5068646;28;20558;-68
2022/07/15 09:25:05;;;;;;;1.95;0.50;;;20.80;99.90;;;;;;5070115;28;20123;-68
2022/07/15 09:27:34;;;;;;;0.73;0.60;;;20.90;99.90;;;;;;5069661;28;20045;-68
2022/07/15 09:36:02;;;;;;;1.65;0.30;;;20.80;99.90;;;;;;5072212;28;20048;-68
2022/07/15 09:38:58;;;;;;;2.33;0.40;;;20.70;99.70;;;;;;5071909;28;20450;-68
2022/07/15 09:41:41;;;;;;;2.25;0.47;;;20.50;99.90;;;;;;5072537;28;20056;-68
2022/07/15 09:44:22;;;;;;;1.30;0.40;;;20.40;99.90;;;;;;5073156;28;20079;-68
2022/07/15 09:46:54;;;;;;;2.17;0.43;;;20.40;99.90;;;;;;5071994;28;20040;-68
2022/07/15 09:49:23;;;;;;;2.55;0.57;;;20.60;99.90;;;;;;5073438;28;20072;-68
2022/07/15 09:52:01;;;;;;;4.05;0.60;;;20.60;99.90;;;;;;5073355;28;20051;-68
2022/07/15 09:54:47;;;;;;;1.13;0.50;;;20.60;99.90;;;;;;5073395;28;20493;-68
2022/07/15 09:57:18;;;;;;;1.48;0.50;;;20.60;99.90;;;;;;5071690;28;20123;-68
2022/07/15 09:59:46;;;;;;;1.05;0.45;;;20.60;99.90;;;;;;5073228;28;20036;-68
2022/07/15 10:02:11;;;;;;;1.83;0.43;;;20.50;99.90;;;;;;5072822;28;20544;-68
2022/07/15 10:04:38;;;;;;;4.05;0.60;;;20.50;99.90;;;;;;5071448;28;20051;-68
2022/07/15 10:07:04;;;;;;;1.38;0.43;;;20.60;99.90;;;;;;5072809;28;20116;-68
2022/07/15 10:09:32;;;;;;;2.58;0.70;;;20.70;99.90;;;;;;5073042;28;20400;-68
2022/07/15 10:12:15;;;;;;;2.13;0.40;;;20.60;99.80;;;;;;5071559;28;20056;-68
2022/07/15 10:15:16;;;;;;;;;;;20.80;99.50;;;;;;5055277;28;20054;-68
2022/07/15 10:18:09;;;;;;;2.58;0.55;;;20.90;99.80;;;;;;5029928;28;20373;-68
2022/07/15 10:20:44;;;;;;;3.00;0.30;;;21.00;99.30;;;;;;5069868;28;20140;-67
2022/07/15 10:23:24;;;;;;;1.65;0.50;;;21.10;99.90;;;;;;5072288;28;20528;-68
2022/07/15 10:26:12;;;;;;;3.13;0.60;;;21.40;99.60;;;;;;5078546;28;20033;-67
2022/07/15 10:28:52;;;;;;;1.52;0.50;;;21.30;99.60;;;;;;5116492;28;20032;-68
2022/07/15 10:31:25;;;;;;;2.95;0.50;;;21.30;99.30;;;;;;5095409;28;20044;-68
2022/07/15 10:34:03;;;;;;;1.63;0.50;;;21.20;99.80;;;;;;5093696;28;20544;-68
2022/07/15 10:36:47;;;;;;;1.95;0.40;;;21.40;99.40;;;;;;5091831;28;20051;-68
2022/07/15 10:39:17;;;;;;;3.63;0.40;;;21.50;99.60;;;;;;5092429;28;20044;-68
2022/07/15 10:42:03;;;;;;;1.67;0.40;;;21.10;99.40;;;;;;5091206;28;20500;-67
2022/07/15 10:44:34;;;;;;;1.73;0.45;;;21.30;99.00;;;;;;5093178;28;20043;-67
2022/07/15 10:47:12;;;;;;;2.28;0.70;;;21.30;98.80;;;;;;5092592;28;20040;-67
2022/07/15 10:49:38;;;;;;;1.67;0.40;;;21.20;99.30;;;;;;5092641;28;20036;-67
2022/07/15 10:52:27;;;;;;;10.43;0.50;;;21.30;99.40;;;;;;5091596;28;20054;-66
2022/07/15 10:54:55;;;;;;;1.13;0.40;;;21.40;98.80;;;;;;5092771;28;20051;-66
2022/07/15 10:57:40;;;;;;;1.63;0.68;;;21.30;99.30;;;;;;5092504;28;20040;-67
2022/07/15 11:00:24;;;;;;;3.65;0.63;;;21.20;99.50;;;;;;5092518;28;20069;-67
2022/07/15 11:03:14;;;;;;;1.42;0.50;;;21.00;99.70;;;;;;5092164;28;20074;-67
2022/07/15 11:05:48;;;;;;;3.50;0.70;;;21.00;99.40;;;;;;5090583;28;20048;-67
2022/07/15 11:08:36;;;;;;;2.15;0.50;;;20.90;99.80;;;;;;5090995;28;20063;-66
2022/07/15 11:11:22;;;;;;;2.15;0.60;;;20.90;99.90;;;;;;5091241;28;20068;-67
2022/07/15 11:13:48;;;;;;;1.92;0.63;;;20.90;99.90;;;;;;5084636;28;20047;-67
2022/07/15 11:16:16;;;;;;;1.52;0.60;;;20.80;99.90;;;;;;5090823;28;20044;-69
2022/07/15 11:18:46;;;;;;;3.25;0.65;;;20.90;99.90;;;;;;5074112;28;20453;-69
2022/07/15 11:21:12;;;;;;;1.23;0.70;;;20.80;99.90;;;;;;5091093;28;20454;-69
2022/07/15 11:23:38;;;;;;;3.42;0.65;;;20.80;99.90;;;;;;5090990;28;20040;-69
2022/07/15 11:26:04;;;;;;;2.08;0.68;;;21.00;99.90;;;;;;5090710;28;20093;-69
2022/07/15 11:28:30;;;;;;;0.93;0.60;;;21.20;99.70;;;;;;5073642;28;20079;-69
2022/07/15 11:30:57;;;;;;;1.90;0.60;;;21.30;99.90;;;;;;5090415;28;20083;-69
2022/07/15 11:33:27;;;;;;;1.85;0.60;;;21.30;99.90;;;;;;5091859;28;20111;-69
2022/07/15 11:35:58;;;;;;;1.85;0.47;;;21.20;99.90;;;;;;5102089;28;20040;-69
2022/07/15 11:38:37;;;;;;;1.75;0.40;;;21.40;99.90;;;;;;5113140;28;20040;-69
2022/07/15 11:46:53;;;;;;;1.45;0.50;;;21.20;99.60;;;;;;5089974;28;20523;-69
2022/07/15 11:49:25;;;;;;;2.55;0.60;;;21.10;99.90;;;;;;5073126;28;20036;-69
2022/07/15 11:51:51;;;;;;;4.90;0.57;;;21.10;99.90;;;;;;5089885;28;20039;-69
2022/07/15 11:54:18;;;;;;;2.10;0.60;;;21.00;99.90;;;;;;5071832;28;20044;-69
2022/07/15 11:56:52;;;;;;;1.10;0.40;;;21.10;99.90;;;;;;5091611;28;20036;-70
2022/07/15 11:59:17;;;;;;;4.32;0.88;;;21.30;99.90;;;;;;5091193;28;20496;-70
2022/07/15 12:01:43;;;;;;;1.48;0.65;;;21.50;99.70;;;;;;5090076;28;20044;-70
2022/07/15 12:04:10;;;;;;;4.28;0.60;;;21.50;99.90;;;;;;5089455;28;20040;-70
2022/07/15 12:06:36;;;;;;;3.72;0.90;;;21.40;99.90;;;;;;5089931;28;20044;-69
2022/07/15 12:09:08;;;;;;;1.88;0.73;;;21.60;99.90;;;;;;5089626;28;20059;-70
2022/07/15 12:11:38;;;;;;;1.67;0.80;;;21.60;99.60;;;;;;5089924;28;20067;-69
2022/07/15 12:14:12;;;;;;;1.83;0.52;;;21.60;99.80;;;;;;5090671;28;20047;-70
2022/07/15 12:16:43;;;;;;;4.05;0.73;;;21.50;99.90;;;;;;5090866;28;20052;-70
2022/07/15 12:19:12;;;;;;;3.17;0.90;;;21.40;99.80;;;;;;5090796;28;20067;-69
2022/07/15 12:21:41;;;;;;;3.25;0.70;;;21.40;99.90;;;;;;5089242;28;20118;-69
2022/07/15 12:24:12;;;;;;;4.60;0.75;;;21.40;99.90;;;;;;5072501;28;20074;-70
2022/07/15 12:26:55;;;;;;;1.20;0.50;;;21.40;99.60;;;;;;5089397;28;20036;-70
2022/07/15 12:29:24;;;;;;;2.97;0.73;;;21.60;99.60;;;;;;5072403;28;20043;-70
2022/07/15 12:32:04;;;;;;;4.30;0.70;;;21.80;98.80;;;;;;5090757;28;20386;-70
2022/07/15 12:35:00;;;;;;;3.10;0.50;;;21.70;98.50;;;;;;5089298;28;20606;-72
2022/07/15 12:37:41;;;;;;;1.77;0.60;;;21.50;98.20;;;;;;5077013;28;20774;-72
2022/07/15 12:40:08;;;;;;;1.55;0.70;;;21.50;98.80;;;;;;5089639;28;20496;-72
2022/07/15 12:42:48;;;;;;;2.42;0.70;;;21.40;99.00;;;;;;5088989;28;20569;-72
2022/07/15 12:45:18;;;;;;;3.03;0.47;;;21.40;99.40;;;;;;5091027;28;20032;-72
2022/07/15 12:48:13;;;;;;;1.10;0.60;;;21.30;99.90;;;;;;5108537;28;20039;-73
2022/07/15 12:50:51;;;;;;;2.83;0.70;;;21.40;99.60;;;;;;5111444;28;20048;-73
2022/07/15 12:53:17;;;;;;;2.85;0.70;;;21.30;99.60;;;;;;5091243;28;20055;-72
2022/07/15 12:55:48;;;;;;;4.57;0.40;;;21.40;99.70;;;;;;5090302;28;20047;-72
2022/07/15 12:58:24;;;;;;;0.77;0.50;;;21.30;99.60;;;;;;5090481;28;20119;-72
2022/07/15 13:00:49;;;;;;;2.17;0.40;;;21.40;99.40;;;;;;5091821;28;20050;-72
2022/07/15 13:03:20;;;;;;;2.78;0.60;;;21.50;99.60;;;;;;5090901;28;20436;-72
2022/07/15 13:05:48;;;;;;;1.67;0.52;;;21.80;99.20;;;;;;5091197;28;20426;-72
2022/07/15 13:08:18;;;;;;;2.17;0.75;;;21.90;99.00;;;;;;5094731;28;20032;-72
2022/07/15 13:10:45;;;;;;;1.75;0.50;;;22.00;99.00;;;;;;5093060;28;20042;-72